Time;durP1;ratioP1;P1;durP2;ratioP2;P2;SDS_P1;SDS_P2;PMS_P1;PMS_P2;Temp;Humidity;BMP_temperature;BMP_pressure;BME280_temperature;BME280_humidity;BME280_pressure;Samples;Min_cycle;Max_cycle;Signal;HPM_P1;HPM_P2
2022/07/27 00:01:16;;;;;;;0.00;0.00;;;20.20;99.90;19.60;97035.00;;;;5014522;28;20192;-70
2022/07/27 00:03:46;;;;;;;0.00;0.00;;;20.10;99.90;19.60;97001.00;;;;5014170;28;20227;-71
2022/07/27 00:06:15;;;;;;;0.00;0.00;;;20.20;99.90;19.60;97011.00;;;;5015351;28;20196;-69
2022/07/27 00:08:43;;;;;;;0.00;0.00;;;20.20;99.90;19.90;93459.00;;;;5014470;28;20234;-72
2022/07/27 00:11:12;;;;;;;0.00;0.00;;;20.20;99.90;19.40;94258.00;;;;5014266;28;20656;-69
2022/07/27 00:13:41;;;;;;;0.00;0.00;;;20.10;99.90;19.20;94491.00;;;;5015921;28;20314;-71
2022/07/27 00:16:09;;;;;;;0.00;0.00;;;20.10;99.90;19.20;94821.00;;;;5027933;28;20199;-69
2022/07/27 00:18:37;;;;;;;0.00;0.00;;;20.10;99.90;19.60;97026.00;;;;5026468;28;20207;-69
2022/07/27 00:21:07;;;;;;;0.00;0.00;;;20.10;99.90;19.60;97065.00;;;;5029371;28;20561;-69
2022/07/27 00:23:35;;;;;;;0.00;0.00;;;20.10;99.90;19.50;97079.00;;;;5031333;28;20235;-69
2022/07/27 00:26:03;;;;;;;0.00;0.00;;;20.10;99.90;19.50;97082.00;;;;5025757;28;20192;-69
2022/07/27 00:28:31;;;;;;;0.00;0.00;;;20.00;99.90;19.50;97063.00;;;;5013654;28;20708;-69
2022/07/27 00:30:59;;;;;;;0.00;0.00;;;20.00;99.90;19.50;97091.00;;;;5014972;28;20242;-70
2022/07/27 00:33:27;;;;;;;0.00;0.00;;;20.00;99.90;19.40;97095.00;;;;5013348;28;20700;-70
2022/07/27 00:35:55;;;;;;;0.00;0.00;;;19.90;99.90;19.50;97099.00;;;;5019258;28;20191;-70
2022/07/27 00:38:25;;;;;;;0.00;0.00;;;19.90;99.90;19.50;97120.00;;;;5033345;28;20187;-69
2022/07/27 00:40:53;;;;;;;0.00;0.00;;;20.00;99.90;19.50;97129.00;;;;5032665;28;20195;-73
2022/07/27 00:43:22;;;;;;;0.00;0.00;;;20.00;99.90;19.50;97119.00;;;;5032498;28;20211;-71
2022/07/27 00:45:50;;;;;;;0.00;0.00;;;20.00;99.90;19.50;97122.00;;;;5027186;28;20550;-70
2022/07/27 00:48:18;;;;;;;0.00;0.00;;;20.00;99.90;19.60;97104.00;;;;5013518;28;20196;-70
2022/07/27 00:50:47;;;;;;;0.00;0.00;;;20.00;99.90;19.10;94497.00;;;;5016231;28;20682;-70
2022/07/27 00:53:16;;;;;;;0.00;0.00;;;20.00;99.90;19.10;94597.00;;;;5013129;28;20212;-70
2022/07/27 00:55:46;;;;;;;0.00;0.00;;;20.00;99.90;19.00;94583.00;;;;5014121;28;20196;-70
2022/07/27 00:58:14;;;;;;;0.00;0.00;;;19.90;99.90;18.90;96153.00;;;;5015206;28;20203;-73
2022/07/27 01:00:42;;;;;;;0.00;0.00;;;19.90;99.90;18.90;96149.00;;;;5033834;28;20282;-71
2022/07/27 01:03:10;;;;;;;0.00;0.00;;;19.90;99.90;18.90;96139.00;;;;5034366;28;20716;-71
2022/07/27 01:05:39;;;;;;;0.00;0.00;;;20.00;99.90;18.90;96151.00;;;;5026932;28;20274;-70
2022/07/27 01:08:12;;;;;;;0.00;0.00;;;19.90;99.90;19.00;96141.00;;;;5025048;28;20195;-71
2022/07/27 01:10:43;;;;;;;0.00;0.00;;;20.00;99.90;19.00;96089.00;;;;5013368;28;20200;-70
2022/07/27 01:13:15;;;;;;;0.00;0.00;;;19.90;99.90;19.50;97082.00;;;;5012704;28;20212;-70
2022/07/27 01:15:44;;;;;;;0.00;0.00;;;20.00;99.90;18.80;96058.00;;;;5022572;28;20203;-69
2022/07/27 01:18:26;;;;;;;0.00;0.00;;;19.90;99.90;18.90;96118.00;;;;5022539;28;20290;-70
2022/07/27 01:20:54;;;;;;;0.00;0.00;;;19.90;99.90;18.90;96084.00;;;;5025644;28;20202;-70
2022/07/27 01:23:24;;;;;;;0.00;0.00;;;19.90;99.90;19.30;97081.00;;;;5012774;28;20319;-70
2022/07/27 01:25:53;;;;;;;0.00;0.00;;;19.80;99.90;19.30;97087.00;;;;5018640;28;20195;-70
2022/07/27 01:28:21;;;;;;;0.00;0.00;;;19.80;99.90;19.30;97075.00;;;;5032239;28;20195;-70
2022/07/27 01:30:49;;;;;;;0.00;0.00;;;19.80;99.90;19.30;97083.00;;;;5031644;28;20658;-71
2022/07/27 01:33:24;;;;;;;0.03;0.03;;;19.80;99.90;19.40;97085.00;;;;5021805;28;20721;-71
2022/07/27 01:35:55;;;;;;;0.00;0.00;;;19.80;99.90;19.30;97085.00;;;;5012761;28;20199;-69
2022/07/27 01:38:24;;;;;;;0.00;0.00;;;19.80;99.90;18.80;95945.00;;;;5012230;28;20199;-70
2022/07/27 01:40:54;;;;;;;0.00;0.00;;;19.80;99.90;19.40;97080.00;;;;5012515;28;20191;-70
2022/07/27 01:43:23;;;;;;;0.00;0.00;;;19.90;99.90;19.40;97080.00;;;;5015401;28;20211;-70
2022/07/27 01:45:51;;;;;;;0.00;0.00;;;19.90;99.90;19.30;97076.00;;;;5012868;28;20371;-70
2022/07/27 01:48:19;;;;;;;0.00;0.00;;;19.80;99.90;19.30;97076.00;;;;5013044;28;20203;-69
2022/07/27 01:50:49;;;;;;;0.00;0.00;;;19.80;99.90;19.20;97076.00;;;;5017691;28;20199;-69
2022/07/27 01:53:17;;;;;;;0.00;0.00;;;19.80;99.90;19.20;97077.00;;;;5017688;28;20254;-70
2022/07/27 01:55:47;;;;;;;0.00;0.00;;;19.70;99.90;19.20;97058.00;;;;5022519;28;20195;-70
2022/07/27 01:58:15;;;;;;;0.00;0.00;;;19.70;99.90;19.20;97060.00;;;;5015105;28;20209;-71
2022/07/27 02:00:43;;;;;;;0.00;0.00;;;19.70;99.90;19.10;97051.00;;;;5018661;28;20199;-70
2022/07/27 02:03:12;;;;;;;0.00;0.00;;;19.70;99.90;19.20;97048.00;;;;5011870;28;20706;-70
2022/07/27 02:05:40;;;;;;;0.00;0.00;;;19.70;99.90;19.10;97049.00;;;;5019831;28;20191;-70
2022/07/27 02:08:09;;;;;;;0.00;0.00;;;19.70;99.90;19.10;97051.00;;;;5031300;28;20187;-71
2022/07/27 02:12:34;;;;;;;0.00;0.00;;;19.60;99.90;19.10;97063.00;;;;5022800;28;20218;-70
2022/07/27 02:13:27;;;;;;;0.00;0.00;;;19.60;99.90;19.10;97053.00;;;;5012324;28;20212;-71
2022/07/27 02:15:55;;;;;;;0.00;0.00;;;19.60;99.90;19.10;97049.00;;;;5015939;28;20688;-71
2022/07/27 02:18:24;;;;;;;0.00;0.00;;;19.60;99.90;19.10;97048.00;;;;5011547;28;20274;-70
2022/07/27 02:21:05;;;;;;;0.00;0.00;;;19.60;99.90;19.10;97059.00;;;;5010993;28;20203;-70
2022/07/27 02:23:34;;;;;;;0.00;0.00;;;19.60;99.90;19.00;97054.00;;;;5011694;28;20222;-71
2022/07/27 02:26:03;;;;;;;0.00;0.00;;;19.60;99.90;19.00;97055.00;;;;5019692;28;20195;-70
2022/07/27 02:28:33;;;;;;;0.00;0.00;;;19.60;99.90;19.00;97049.00;;;;5019284;28;20255;-71
2022/07/27 02:31:02;;;;;;;0.00;0.00;;;19.50;99.90;19.00;97068.00;;;;5012240;28;20655;-70
2022/07/27 02:33:30;;;;;;;0.00;0.00;;;19.50;99.90;19.00;97065.00;;;;5011267;28;20227;-70
2022/07/27 02:35:58;;;;;;;0.10;0.10;;;19.50;99.90;18.90;97064.00;;;;5021192;28;20568;-71
2022/07/27 02:38:26;;;;;;;0.00;0.00;;;19.50;99.90;18.90;97058.00;;;;5021609;28;20673;-70
2022/07/27 02:40:54;;;;;;;0.00;0.00;;;19.50;99.90;18.90;97069.00;;;;5012117;28;20674;-71
2022/07/27 02:43:22;;;;;;;0.00;0.00;;;19.50;99.90;18.70;96821.00;;;;5022013;28;20220;-71
2022/07/27 02:45:52;;;;;;;0.00;0.00;;;19.50;99.90;18.90;97030.00;;;;5022730;28;20203;-70
2022/07/27 02:48:20;;;;;;;0.00;0.00;;;19.50;99.90;18.90;97059.00;;;;5023102;28;20202;-71
2022/07/27 02:50:48;;;;;;;0.00;0.00;;;19.50;99.90;18.70;97039.00;;;;5031337;28;20199;-71
2022/07/27 02:53:16;;;;;;;0.10;0.10;;;19.40;99.90;18.80;97043.00;;;;5031209;28;20215;-71
2022/07/27 02:55:44;;;;;;;0.00;0.00;;;19.40;99.90;19.00;93505.00;;;;5020089;28;20583;-70
2022/07/27 02:58:12;;;;;;;0.10;0.10;;;19.40;99.90;18.80;97026.00;;;;5020900;28;20203;-71
2022/07/27 03:00:40;;;;;;;0.00;0.00;;;19.40;99.90;18.80;97033.00;;;;5031482;28;20194;-70
2022/07/27 03:03:09;;;;;;;0.10;0.10;;;19.40;99.90;18.80;97045.00;;;;5031025;28;20220;-71
2022/07/27 03:05:38;;;;;;;0.00;0.00;;;19.40;99.90;18.20;95692.00;;;;5023627;28;20235;-70
2022/07/27 03:08:06;;;;;;;0.00;0.00;;;19.40;99.90;18.10;95914.00;;;;5010355;28;20195;-70
2022/07/27 03:10:34;;;;;;;0.00;0.00;;;19.30;99.90;18.10;95850.00;;;;5013598;28;20192;-70
2022/07/27 03:13:02;;;;;;;0.10;0.10;;;19.20;99.90;18.00;95946.00;;;;5015179;28;20214;-71
2022/07/27 03:15:33;;;;;;;0.00;0.00;;;19.10;99.90;17.80;95920.00;;;;5020069;28;20666;-71
2022/07/27 03:18:01;;;;;;;0.00;0.00;;;19.00;99.90;17.80;95967.00;;;;5034579;28;20199;-70
2022/07/27 03:20:30;;;;;;;0.00;0.00;;;19.00;99.90;17.80;96040.00;;;;5033984;28;20237;-70
2022/07/27 03:22:58;;;;;;;0.00;0.00;;;18.90;99.90;17.80;95970.00;;;;5022507;28;20230;-71
2022/07/27 03:25:26;;;;;;;0.00;0.00;;;18.90;99.90;17.70;96000.00;;;;5018475;28;20230;-70
2022/07/27 03:27:55;;;;;;;0.00;0.00;;;18.80;99.90;18.20;97032.00;;;;5034031;28;20210;-71
2022/07/27 03:30:30;;;;;;;0.00;0.00;;;18.80;99.90;18.10;97007.00;;;;5034362;28;20717;-70
2022/07/27 03:32:59;;;;;;;0.00;0.00;;;18.80;99.90;18.10;97014.00;;;;5032377;28;20309;-71
2022/07/27 03:35:27;;;;;;;0.00;0.00;;;18.80;99.90;17.60;95954.00;;;;5019059;28;20237;-71
2022/07/27 03:37:56;;;;;;;0.00;0.00;;;18.70;99.90;17.60;95945.00;;;;5030438;28;20203;-71
2022/07/27 03:40:24;;;;;;;0.10;0.10;;;18.80;99.90;17.60;95931.00;;;;5019357;28;20611;-72
2022/07/27 03:42:52;;;;;;;0.00;0.00;;;18.70;99.90;17.60;95852.00;;;;5016640;28;20220;-71
2022/07/27 03:45:20;;;;;;;0.00;0.00;;;18.70;99.90;17.70;95871.00;;;;5025115;28;20215;-71
2022/07/27 03:47:48;;;;;;;0.00;0.00;;;18.80;99.90;17.70;95917.00;;;;5025017;28;20203;-70
2022/07/27 03:50:16;;;;;;;0.00;0.00;;;18.80;99.90;17.60;95785.00;;;;5026626;28;20192;-71
2022/07/27 03:52:45;;;;;;;0.05;0.05;;;18.80;99.90;17.50;95798.00;;;;5027545;28;20215;-72
2022/07/27 03:55:14;;;;;;;0.00;0.00;;;18.70;99.90;17.50;95696.00;;;;5039046;28;20206;-72
2022/07/27 03:57:42;;;;;;;0.00;0.00;;;18.60;99.90;17.50;95850.00;;;;5036209;28;20203;-71
2022/07/27 04:00:12;;;;;;;0.00;0.00;;;18.60;99.90;17.60;95859.00;;;;5028720;28;20195;-71
2022/07/27 04:02:41;;;;;;;0.00;0.00;;;18.70;99.90;17.50;95873.00;;;;5042748;28;20227;-72
2022/07/27 04:05:11;;;;;;;0.00;0.00;;;18.70;99.90;17.50;95765.00;;;;5038627;28;20224;-72
2022/07/27 04:07:40;;;;;;;0.00;0.00;;;18.60;99.90;17.40;95804.00;;;;5041487;28;20199;-71
2022/07/27 04:10:09;;;;;;;0.00;0.00;;;18.60;99.90;17.40;95894.00;;;;5052306;28;20213;-72
2022/07/27 04:12:39;;;;;;;0.00;0.00;;;18.60;99.90;17.30;96028.00;;;;5052531;28;20222;-71
2022/07/27 04:15:10;;;;;;;0.00;0.00;;;18.50;99.90;17.30;95915.00;;;;5033302;28;20200;-71
2022/07/27 04:17:38;;;;;;;0.08;0.08;;;18.40;99.90;17.80;97020.00;;;;5037039;28;20273;-71
2022/07/27 04:20:23;;;;;;;0.00;0.00;;;18.40;99.90;17.80;97045.00;;;;5016265;28;20195;-71
2022/07/27 04:22:51;;;;;;;0.00;0.00;;;18.30;99.90;17.80;97045.00;;;;5027615;28;20254;-72
2022/07/27 04:25:19;;;;;;;0.00;0.00;;;18.40;99.90;17.10;95785.00;;;;5027802;28;20222;-72
2022/07/27 04:27:49;;;;;;;0.08;0.08;;;18.30;99.90;17.00;95756.00;;;;5033597;28;20206;-72
2022/07/27 04:30:17;;;;;;;0.00;0.00;;;18.20;99.90;16.90;95786.00;;;;5033741;28;20195;-71
2022/07/27 04:32:45;;;;;;;0.00;0.00;;;18.10;99.90;16.90;95725.00;;;;5034280;28;20287;-72
2022/07/27 04:35:13;;;;;;;0.10;0.10;;;18.00;99.90;16.80;95683.00;;;;5032765;28;20198;-72
2022/07/27 04:37:41;;;;;;;0.10;0.10;;;18.00;99.90;16.80;95601.00;;;;5031583;28;20188;-72
2022/07/27 04:40:31;;;;;;;0.10;0.10;;;18.00;99.90;16.60;95618.00;;;;5022451;28;20191;-70
2022/07/27 04:43:04;;;;;;;0.00;0.00;;;17.80;99.90;16.60;95630.00;;;;5013368;28;20238;-71
2022/07/27 04:45:33;;;;;;;0.00;0.00;;;17.80;99.90;16.60;95694.00;;;;5026372;28;20219;-70
2022/07/27 04:48:05;;;;;;;0.10;0.10;;;17.80;99.90;16.60;95753.00;;;;5013186;28;20255;-70
2022/07/27 04:50:39;;;;;;;0.00;0.00;;;17.80;99.90;16.50;95577.00;;;;5018587;28;20200;-71
2022/07/27 04:53:08;;;;;;;0.00;0.00;;;17.70;99.90;16.40;95537.00;;;;5033333;28;20214;-71
2022/07/27 04:55:36;;;;;;;0.00;0.00;;;17.70;99.90;16.40;95607.00;;;;5024191;28;20230;-71
2022/07/27 04:58:06;;;;;;;0.00;0.00;;;17.60;99.90;16.30;95773.00;;;;5017002;28;20204;-71
2022/07/27 05:00:34;;;;;;;0.00;0.00;;;17.50;99.90;16.30;95565.00;;;;5033275;28;20191;-70
2022/07/27 05:03:02;;;;;;;0.00;0.00;;;17.40;99.90;16.20;95556.00;;;;5030962;28;20215;-70
2022/07/27 05:05:30;;;;;;;0.00;0.00;;;17.40;99.90;16.10;95537.00;;;;5032439;28;20210;-70
2022/07/27 05:07:58;;;;;;;0.00;0.00;;;17.30;99.90;16.20;95516.00;;;;5031670;28;20198;-71
2022/07/27 05:10:26;;;;;;;0.00;0.00;;;17.40;99.90;16.80;97000.00;;;;5031366;28;20199;-71
2022/07/27 05:12:54;;;;;;;0.00;0.00;;;17.40;99.90;16.90;97033.00;;;;5033198;28;20215;-71
2022/07/27 05:15:24;;;;;;;0.00;0.00;;;17.40;99.90;16.30;95844.00;;;;5026209;28;20195;-71
2022/07/27 05:17:52;;;;;;;0.00;0.00;;;17.40;99.90;16.20;95716.00;;;;5019598;28;20199;-70
2022/07/27 05:20:20;;;;;;;0.00;0.00;;;17.40;99.90;16.20;95635.00;;;;5021779;28;20563;-71
2022/07/27 05:22:48;;;;;;;0.00;0.00;;;17.40;99.90;16.30;95726.00;;;;5032131;28;20273;-72
2022/07/27 05:25:16;;;;;;;0.00;0.00;;;17.40;99.90;16.30;95550.00;;;;5012953;28;20215;-71
2022/07/27 05:27:44;;;;;;;0.00;0.00;;;17.40;99.90;16.30;95513.00;;;;5012625;28;20566;-72
2022/07/27 05:30:24;;;;;;;0.00;0.00;;;17.40;99.90;16.20;95614.00;;;;5013485;28;20195;-71
2022/07/27 05:32:52;;;;;;;0.03;0.03;;;17.40;99.90;16.20;95473.00;;;;5028046;28;20775;-71
2022/07/27 05:35:21;;;;;;;0.00;0.00;;;17.30;99.90;16.10;95730.00;;;;5032079;28;20205;-71
2022/07/27 05:37:49;;;;;;;0.00;0.00;;;17.30;99.90;16.20;95762.00;;;;5018135;28;20203;-71
2022/07/27 05:40:17;;;;;;;0.00;0.00;;;17.30;99.90;16.20;95747.00;;;;5012444;28;20195;-71
2022/07/27 05:42:45;;;;;;;0.10;0.10;;;17.30;99.90;16.20;95617.00;;;;5012797;28;20230;-69
2022/07/27 05:45:13;;;;;;;0.00;0.00;;;17.30;99.90;16.20;95795.00;;;;5012270;28;20192;-71
2022/07/27 05:47:42;;;;;;;0.00;0.00;;;17.30;99.90;16.20;95815.00;;;;5013409;28;20558;-71
2022/07/27 05:50:11;;;;;;;0.00;0.00;;;17.30;99.90;16.10;95789.00;;;;5013957;28;20238;-69
2022/07/27 05:52:39;;;;;;;0.00;0.00;;;17.30;99.90;16.10;95891.00;;;;5012523;28;20230;-69
2022/07/27 05:55:08;;;;;;;0.00;0.00;;;17.30;99.90;16.10;95797.00;;;;5012722;28;20196;-70
2022/07/27 05:57:36;;;;;;;0.10;0.10;;;17.20;99.90;16.10;95924.00;;;;5011211;28;20208;-70
2022/07/27 06:00:07;;;;;;;0.00;0.00;;;17.20;99.90;16.00;95829.00;;;;5012741;28;20223;-69
2022/07/27 06:02:42;;;;;;;0.00;0.00;;;17.20;99.90;15.80;95857.00;;;;5013839;28;20227;-69
2022/07/27 06:05:10;;;;;;;0.00;0.00;;;17.10;99.90;15.70;95965.00;;;;5012219;28;20202;-69
2022/07/27 06:07:58;;;;;;;0.00;0.00;;;17.00;99.90;15.80;96026.00;;;;5011965;28;20310;-70
2022/07/27 06:10:29;;;;;;;0.03;0.03;;;17.00;99.90;15.90;96189.00;;;;5016560;28;20293;-69
2022/07/27 06:12:57;;;;;;;0.00;0.00;;;17.00;99.90;15.70;96093.00;;;;5017385;28;20223;-70
2022/07/27 06:15:26;;;;;;;0.00;0.00;;;16.90;99.90;15.80;96065.00;;;;5012336;28;20211;-70
2022/07/27 06:17:55;;;;;;;0.00;0.00;;;16.90;99.90;15.60;96012.00;;;;5014430;28;20195;-70
2022/07/27 06:20:24;;;;;;;0.00;0.00;;;16.80;99.90;15.70;95999.00;;;;5031621;28;20195;-70
2022/07/27 06:22:56;;;;;;;0.00;0.00;;;16.90;99.90;15.80;96198.00;;;;5031876;28;20222;-70
2022/07/27 06:25:24;;;;;;;0.00;0.00;;;16.90;99.90;15.80;96122.00;;;;5032201;28;20662;-70
2022/07/27 06:28:03;;;;;;;0.10;0.10;;;16.90;99.90;15.80;96064.00;;;;5031695;28;20190;-69
2022/07/27 06:30:32;;;;;;;0.10;0.10;;;17.00;99.90;15.80;96080.00;;;;5032287;28;20259;-70
2022/07/27 06:33:03;;;;;;;0.00;0.00;;;17.00;99.90;15.80;96087.00;;;;5032164;28;20223;-69
2022/07/27 06:35:33;;;;;;;0.00;0.00;;;16.90;99.90;15.80;96131.00;;;;5032720;28;20195;-69
2022/07/27 06:38:01;;;;;;;0.00;0.00;;;16.90;99.90;15.80;96138.00;;;;5032061;28;20199;-69
2022/07/27 06:40:30;;;;;;;0.00;0.00;;;16.90;99.90;15.80;96103.00;;;;5032350;28;20195;-69
2022/07/27 06:42:59;;;;;;;0.00;0.00;;;16.90;99.90;15.70;96124.00;;;;5032729;28;20736;-69
2022/07/27 06:45:27;;;;;;;0.10;0.10;;;16.90;99.90;15.70;96062.00;;;;5034214;28;20226;-70
2022/07/27 06:47:55;;;;;;;0.00;0.00;;;16.90;99.90;15.70;96105.00;;;;5036137;28;20215;-69
2022/07/27 06:50:26;;;;;;;0.10;0.10;;;16.90;99.90;15.60;96013.00;;;;5036079;28;20250;-69
2022/07/27 06:52:54;;;;;;;0.10;0.10;;;16.80;99.90;15.60;95975.00;;;;5015383;28;20223;-69
2022/07/27 06:55:22;;;;;;;0.10;0.10;;;16.80;99.90;15.40;95944.00;;;;5015950;28;20196;-69
2022/07/27 06:57:50;;;;;;;0.00;0.00;;;16.70;99.90;15.30;95825.00;;;;5015209;28;20199;-70
2022/07/27 07:00:18;;;;;;;0.00;0.00;;;16.70;99.90;15.30;95875.00;;;;5026683;28;20203;-70
2022/07/27 07:02:57;;;;;;;0.10;0.10;;;16.60;99.90;15.50;95861.00;;;;5035333;28;20306;-69
2022/07/27 07:05:27;;;;;;;0.00;0.00;;;16.60;99.90;15.40;95573.00;;;;5035265;28;20191;-70
2022/07/27 07:07:56;;;;;;;0.00;0.00;;;16.60;99.90;15.50;95627.00;;;;5035159;28;20222;-70
2022/07/27 07:10:26;;;;;;;0.00;0.00;;;16.70;99.90;15.50;95925.00;;;;5034974;28;20195;-70
2022/07/27 07:12:55;;;;;;;0.10;0.10;;;16.80;99.90;15.60;95732.00;;;;5035175;28;20583;-70
2022/07/27 07:15:25;;;;;;;0.00;0.00;;;16.80;99.90;15.60;95690.00;;;;5035081;28;20551;-70
2022/07/27 07:17:53;;;;;;;0.10;0.10;;;16.80;99.90;15.70;95921.00;;;;5034501;28;20187;-70
2022/07/27 07:20:22;;;;;;;0.00;0.00;;;16.90;99.90;15.80;95859.00;;;;5034881;28;20194;-70
2022/07/27 07:22:51;;;;;;;0.00;0.00;;;16.90;99.90;15.90;95729.00;;;;5034740;28;20245;-70
2022/07/27 07:25:20;;;;;;;0.00;0.00;;;17.00;99.90;16.00;95627.00;;;;5034320;28;20191;-70
2022/07/27 07:27:48;;;;;;;0.00;0.00;;;17.10;99.90;16.00;95600.00;;;;5034165;28;20244;-71
2022/07/27 07:30:16;;;;;;;0.00;0.00;;;17.20;99.90;16.10;95650.00;;;;5034622;28;20192;-70
2022/07/27 07:32:44;;;;;;;0.00;0.00;;;17.20;99.90;16.10;95831.00;;;;5034325;28;20223;-70
2022/07/27 07:35:13;;;;;;;0.10;0.10;;;17.30;99.90;16.20;95909.00;;;;5034647;28;20214;-70
2022/07/27 07:37:41;;;;;;;0.00;0.00;;;17.30;99.90;16.20;96081.00;;;;5034503;28;20195;-70
2022/07/27 07:40:11;;;;;;;0.00;0.00;;;17.30;99.90;16.20;95883.00;;;;5034493;28;20191;-70
2022/07/27 07:43:02;;;;;;;0.00;0.00;;;17.30;99.90;16.20;95884.00;;;;5034294;28;20222;-70
2022/07/27 07:45:36;;;;;;;0.00;0.00;;;17.40;99.90;16.30;95931.00;;;;5034280;28;20709;-70
2022/07/27 07:48:06;;;;;;;0.00;0.00;;;17.40;99.90;16.30;95870.00;;;;5034054;28;20226;-70
2022/07/27 07:50:35;;;;;;;0.00;0.00;;;17.40;99.90;16.30;95898.00;;;;5034135;28;20202;-70
2022/07/27 07:53:03;;;;;;;0.00;0.00;;;17.40;99.90;16.40;95872.00;;;;5034551;28;20307;-70
2022/07/27 07:55:32;;;;;;;0.00;0.00;;;17.50;99.90;16.40;95899.00;;;;5034066;28;20199;-71
2022/07/27 07:58:00;;;;;;;0.10;0.10;;;17.50;99.90;16.30;95949.00;;;;5034229;28;20596;-71
2022/07/27 08:00:29;;;;;;;0.10;0.10;;;17.40;99.90;16.20;95882.00;;;;5027867;28;20283;-70
2022/07/27 08:02:57;;;;;;;0.00;0.00;;;17.30;99.90;16.10;95952.00;;;;5021418;28;20220;-70
2022/07/27 08:05:26;;;;;;;0.00;0.00;;;17.30;99.90;16.10;95931.00;;;;5013804;28;20295;-70
2022/07/27 08:07:54;;;;;;;0.00;0.00;;;17.30;99.90;16.10;95959.00;;;;5014830;28;20219;-70
2022/07/27 08:10:23;;;;;;;0.10;0.10;;;17.30;99.90;16.00;95870.00;;;;5033841;28;20195;-70
2022/07/27 08:12:56;;;;;;;0.00;0.00;;;17.20;99.90;16.00;95992.00;;;;5036271;28;20207;-70
2022/07/27 08:15:26;;;;;;;0.05;0.05;;;17.10;99.90;16.00;95892.00;;;;5033862;28;20197;-70
2022/07/27 08:18:02;;;;;;;0.00;0.00;;;17.10;99.90;16.10;95873.00;;;;5032493;28;20195;-70
2022/07/27 08:20:30;;;;;;;0.00;0.00;;;17.30;99.90;16.10;95949.00;;;;5033903;28;20195;-70
2022/07/27 08:22:59;;;;;;;0.00;0.00;;;17.30;99.90;16.20;95981.00;;;;5034673;28;20226;-71
2022/07/27 08:25:27;;;;;;;0.00;0.00;;;17.30;99.90;16.20;95940.00;;;;5034457;28;20211;-70
2022/07/27 08:27:56;;;;;;;0.00;0.00;;;17.30;99.90;16.20;96055.00;;;;5033512;28;20232;-71
2022/07/27 08:30:25;;;;;;;0.00;0.00;;;17.30;99.90;16.30;96027.00;;;;5026528;28;20231;-70
2022/07/27 08:32:58;;;;;;;0.00;0.00;;;17.40;99.90;16.20;96050.00;;;;5013529;28;20278;-70
2022/07/27 08:35:28;;;;;;;0.00;0.00;;;17.30;99.90;16.10;95861.00;;;;5014575;28;20219;-70
2022/07/27 08:37:57;;;;;;;0.10;0.10;;;17.20;99.90;16.00;95875.00;;;;5022022;28;20210;-70
2022/07/27 08:40:26;;;;;;;0.00;0.00;;;17.20;99.90;16.10;95853.00;;;;5033415;28;20666;-70
2022/07/27 08:43:10;;;;;;;0.10;0.10;;;17.30;99.90;16.20;96014.00;;;;5034445;28;20206;-70
2022/07/27 08:45:40;;;;;;;0.00;0.00;;;17.30;99.90;16.20;95903.00;;;;5033531;28;20205;-70
2022/07/27 08:48:13;;;;;;;0.00;0.00;;;17.30;99.90;16.10;95909.00;;;;5032906;28;20705;-70
2022/07/27 08:50:41;;;;;;;0.10;0.10;;;17.30;99.90;16.10;95890.00;;;;5033384;28;20195;-70
2022/07/27 08:53:13;;;;;;;0.00;0.00;;;17.30;99.90;16.30;95944.00;;;;5033379;28;20724;-70
2022/07/27 08:55:43;;;;;;;0.00;0.00;;;17.40;99.90;16.40;95862.00;;;;5033059;28;20195;-70
2022/07/27 08:58:15;;;;;;;0.10;0.10;;;17.50;99.90;16.50;95828.00;;;;5032471;28;20195;-70
2022/07/27 09:00:47;;;;;;;0.00;0.00;;;17.60;99.90;16.50;95549.00;;;;5035323;28;20561;-73
2022/07/27 09:03:19;;;;;;;0.10;0.10;;;17.60;99.90;16.50;95650.00;;;;5036750;28;20242;-72
2022/07/27 09:05:51;;;;;;;0.00;0.00;;;17.60;99.90;16.40;95589.00;;;;5037990;28;20257;-72
2022/07/27 09:08:22;;;;;;;0.00;0.00;;;17.60;99.90;16.50;95623.00;;;;5035926;28;20230;-72
2022/07/27 09:10:53;;;;;;;0.00;0.00;;;17.70;99.90;16.60;95665.00;;;;5038190;28;20219;-73
2022/07/27 09:13:27;;;;;;;0.00;0.00;;;17.70;99.90;16.60;95744.00;;;;5036751;28;20214;-72
2022/07/27 09:15:58;;;;;;;0.00;0.00;;;17.80;99.90;16.70;95804.00;;;;5038122;28;20681;-72
2022/07/27 09:18:48;;;;;;;0.00;0.00;;;17.80;99.90;16.70;96026.00;;;;5040372;28;20238;-72
2022/07/27 09:21:19;;;;;;;0.00;0.00;;;17.80;99.90;16.70;95860.00;;;;5039083;28;20651;-72
2022/07/27 09:23:51;;;;;;;0.00;0.00;;;17.90;99.90;16.60;95859.00;;;;5045503;28;20718;-72
2022/07/27 09:26:21;;;;;;;0.00;0.00;;;17.80;99.90;16.70;95883.00;;;;5043298;28;20202;-72
2022/07/27 09:29:06;;;;;;;0.00;0.00;;;17.90;99.90;16.60;95688.00;;;;5041428;28;20218;-72
2022/07/27 09:31:42;;;;;;;0.03;0.03;;;17.90;99.90;16.80;95673.00;;;;5036796;28;20246;-72
2022/07/27 09:34:12;;;;;;;0.00;0.00;;;17.90;99.90;17.00;95725.00;;;;5037010;28;20217;-72
2022/07/27 09:36:52;;;;;;;0.10;0.10;;;18.00;99.90;17.10;95744.00;;;;5036002;28;20283;-73
2022/07/27 09:39:23;;;;;;;0.00;0.00;;;18.20;99.90;17.30;95644.00;;;;5035771;28;20195;-72
2022/07/27 09:41:53;;;;;;;0.00;0.00;;;18.30;99.90;17.50;95649.00;;;;5034942;28;20222;-72
2022/07/27 09:44:34;;;;;;;0.00;0.00;;;18.50;99.90;17.80;95728.00;;;;5035889;28;20195;-72
2022/07/27 09:47:25;;;;;;;0.00;0.00;;;18.70;99.90;17.70;95834.00;;;;5035344;28;20229;-73
2022/07/27 09:49:53;;;;;;;0.00;0.00;;;18.80;99.90;18.10;95766.00;;;;5034792;28;20199;-72
2022/07/27 09:52:28;;;;;;;0.00;0.00;;;19.00;99.90;18.20;95785.00;;;;5033334;28;20211;-72
2022/07/27 09:55:03;;;;;;;0.00;0.00;;;19.10;99.90;18.50;95805.00;;;;5035644;28;20278;-72
2022/07/27 09:57:49;;;;;;;0.00;0.00;;;19.40;99.90;18.60;95763.00;;;;5034863;28;20194;-72
2022/07/27 10:00:20;;;;;;;0.00;0.00;;;19.50;99.90;18.50;95665.00;;;;5035178;28;20190;-73
2022/07/27 10:02:49;;;;;;;0.00;0.00;;;19.60;99.90;18.60;95676.00;;;;5035731;28;20211;-73
2022/07/27 10:05:20;;;;;;;0.00;0.00;;;19.60;99.90;18.70;96013.00;;;;5029307;28;20196;-73
2022/07/27 10:07:49;;;;;;;0.00;0.00;;;19.70;99.90;18.90;95976.00;;;;5014609;28;20207;-72
2022/07/27 10:10:17;;;;;;;0.00;0.00;;;19.80;99.90;19.00;96081.00;;;;5029302;28;20218;-72
2022/07/27 10:12:46;;;;;;;0.00;0.00;;;19.90;99.90;19.00;95831.00;;;;5035999;28;20222;-71
2022/07/27 10:15:23;;;;;;;0.00;0.00;;;19.90;99.90;18.90;96006.00;;;;5014830;28;20249;-72
2022/07/27 10:18:02;;;;;;;0.00;0.00;;;19.90;99.90;18.80;95909.00;;;;5015325;28;20192;-74
2022/07/27 10:20:41;;;;;;;0.00;0.00;;;19.90;99.90;18.80;95945.00;;;;5017198;28;20200;-72
2022/07/27 10:23:27;;;;;;;0.00;0.00;;;20.10;99.90;19.30;95894.00;;;;5018284;28;20215;-72
2022/07/27 10:26:20;;;;;;;0.00;0.00;;;20.20;99.90;19.50;95972.00;;;;5019715;28;20542;-72
2022/07/27 10:28:51;;;;;;;0.00;0.00;;;20.30;99.90;19.50;95939.00;;;;5019140;28;20708;-75
2022/07/27 10:31:22;;;;;;;0.00;0.00;;;20.40;99.90;19.60;95952.00;;;;5018634;28;20204;-74
2022/07/27 10:33:53;;;;;;;0.00;0.00;;;20.60;99.90;19.40;96013.00;;;;5016813;28;20231;-70
2022/07/27 10:36:49;;;;;;;0.00;0.00;;;20.50;99.90;19.60;96011.00;;;;5016482;28;20199;-70
2022/07/27 10:39:36;;;;;;;0.00;0.00;;;20.60;99.90;19.90;95992.00;;;;5016153;28;20202;-70
2022/07/27 10:42:28;;;;;;;0.00;0.00;;;20.80;99.90;20.00;95982.00;;;;5016888;28;20219;-70
2022/07/27 10:45:07;;;;;;;0.00;0.00;;;20.90;99.90;19.80;95960.00;;;;5016382;28;20208;-70
2022/07/27 10:47:41;;;;;;;0.00;0.00;;;20.80;99.90;20.00;95972.00;;;;5015991;28;20195;-70
2022/07/27 10:50:36;;;;;;;0.00;0.00;;;20.90;99.90;20.20;95977.00;;;;5016268;28;20207;-70
2022/07/27 10:53:08;;;;;;;0.00;0.00;;;21.00;99.90;20.30;95931.00;;;;5016331;28;20224;-70
2022/07/27 10:55:49;;;;;;;0.00;0.00;;;21.10;99.90;20.50;95941.00;;;;5015528;28;20204;-70
2022/07/27 10:58:44;;;;;;;0.00;0.00;;;21.30;99.90;20.60;95953.00;;;;5015441;28;20199;-71
2022/07/27 11:01:13;;;;;;;0.00;0.00;;;21.40;99.90;20.80;96157.00;;;;5015563;28;20206;-70
2022/07/27 11:03:51;;;;;;;0.00;0.00;;;21.60;99.90;20.50;96129.00;;;;5015588;28;20768;-70
2022/07/27 11:06:28;;;;;;;0.00;0.00;;;21.50;99.90;20.50;96176.00;;;;5014500;28;20631;-70
2022/07/27 11:09:16;;;;;;;0.00;0.00;;;21.50;99.90;20.70;96134.00;;;;5012689;28;20220;-70
2022/07/27 11:12:06;;;;;;;0.00;0.00;;;21.60;99.90;21.10;96020.00;;;;5017231;28;20228;-70